0TX1 – Local Weather Observations

Pecan Plantation

This weather station is operated by a private user located just north of the field. Data is gathered via OpenWeatherMap.org.

Last updated:
2019-11-23 02:32:23(8:32 pm)

Temperature: 43.4 °F

Sunrise / Sunset: 7:05 am / 5:28 pm

Civil Dawn / Dusk: 6:39 am / 5:54 pm

Nearby METARs

KGDJ 230235Z AUTO 33006KT 10SM OVC019 07/03 A3015 RMK AO2 T00710027

KCPT 230235Z AUTO 32013KT 10SM OVC018 06/03 A3014 RMK AO2

KFWS 230235Z AUTO 32009KT 10SM OVC018 07/03 A3014 RMK AO2 T00670030

KSEP 230235Z AUTO 35010KT 10SM OVC016 06/03 A3015 RMK AO2 T00610025